Time;durP1;ratioP1;P1;durP2;ratioP2;P2;SDS_P1;SDS_P2;PMS_P1;PMS_P2;Temp;Humidity;BMP_temperature;BMP_pressure;BME280_temperature;BME280_humidity;BME280_pressure;Samples;Min_cycle;Max_cycle;Signal;HPM_P1;HPM_P2
2022/02/23 00:00:25;;;;;;;6.93;1.80;;;6.10;99.90;;;;;;5032532;28;20369;-79
2022/02/23 00:02:51;;;;;;;6.70;1.80;;;6.10;99.90;;;;;;5032689;28;20025;-80
2022/02/23 00:05:17;;;;;;;5.27;1.70;;;6.10;99.90;;;;;;5032647;28;20099;-79
2022/02/23 00:07:42;;;;;;;7.33;2.07;;;6.10;99.90;;;;;;5032780;28;20104;-79
2022/02/23 00:10:08;;;;;;;7.43;2.50;;;6.20;99.90;;;;;;5032820;28;20034;-78
2022/02/23 00:12:34;;;;;;;6.83;2.07;;;6.20;99.90;;;;;;5032506;28;20044;-79
2022/02/23 00:15:00;;;;;;;11.47;2.30;;;6.20;99.90;;;;;;5032600;28;20105;-79
2022/02/23 00:17:26;;;;;;;7.23;1.87;;;6.20;99.90;;;;;;5032617;28;20026;-79
2022/02/23 00:19:53;;;;;;;7.43;1.90;;;6.20;99.90;;;;;;5031474;28;20424;-79
2022/02/23 00:22:18;;;;;;;4.53;1.90;;;6.10;99.90;;;;;;5032404;28;20029;-80
2022/02/23 00:24:44;;;;;;;8.37;2.13;;;6.10;99.90;;;;;;5032714;28;20041;-79
2022/02/23 00:27:10;;;;;;;6.93;2.07;;;6.00;99.90;;;;;;5032110;28;20034;-79
2022/02/23 00:29:36;;;;;;;5.93;2.33;;;6.00;99.90;;;;;;5035876;28;20532;-79
2022/02/23 00:32:02;;;;;;;6.33;1.90;;;5.90;99.90;;;;;;5036251;28;20023;-79
2022/02/23 00:34:28;;;;;;;6.57;2.00;;;5.90;99.90;;;;;;5036011;28;20029;-80
2022/02/23 00:36:57;;;;;;;9.70;2.93;;;5.80;99.90;;;;;;5036070;28;20029;-79
2022/02/23 00:39:23;;;;;;;5.10;1.60;;;5.90;99.90;;;;;;5036125;28;20025;-79
2022/02/23 00:41:49;;;;;;;5.83;1.73;;;5.90;99.90;;;;;;5036186;28;20064;-80
2022/02/23 00:44:15;;;;;;;7.77;1.80;;;5.90;99.90;;;;;;5036011;28;20037;-80
2022/02/23 00:46:41;;;;;;;9.20;1.93;;;6.00;99.90;;;;;;5043736;28;20087;-80
2022/02/23 00:49:07;;;;;;;9.33;1.70;;;6.00;99.90;;;;;;5055857;28;20116;-80
2022/02/23 00:51:33;;;;;;;6.80;1.93;;;6.00;99.90;;;;;;5056892;28;20155;-80
2022/02/23 00:53:58;;;;;;;8.33;2.37;;;6.00;99.90;;;;;;5055074;28;20414;-79
2022/02/23 00:56:24;;;;;;;5.63;1.90;;;6.00;99.90;;;;;;5056095;28;20029;-79
2022/02/23 00:58:50;;;;;;;7.50;1.90;;;6.00;99.90;;;;;;5056414;28;20029;-79
2022/02/23 01:01:16;;;;;;;7.70;1.87;;;6.10;99.90;;;;;;5054773;28;20377;-79
2022/02/23 01:03:42;;;;;;;6.93;2.40;;;6.10;99.90;;;;;;5056037;28;20031;-79
2022/02/23 01:06:07;;;;;;;8.87;2.20;;;6.10;99.90;;;;;;5054548;28;20029;-79
2022/02/23 01:08:33;;;;;;;6.93;1.73;;;6.20;99.90;;;;;;5055646;28;20059;-80
2022/02/23 01:10:59;;;;;;;8.37;1.90;;;6.20;99.90;;;;;;5055695;28;20025;-79
2022/02/23 01:13:25;;;;;;;7.13;2.30;;;6.30;99.90;;;;;;5055495;28;20474;-79
2022/02/23 01:15:51;;;;;;;9.40;1.80;;;6.30;99.90;;;;;;5055626;28;20377;-80
2022/02/23 01:18:17;;;;;;;8.77;2.03;;;6.30;99.90;;;;;;5054319;28;20110;-80
2022/02/23 01:20:42;;;;;;;6.27;1.90;;;6.30;99.90;;;;;;5054221;28;20036;-79
2022/02/23 01:23:08;;;;;;;8.17;2.37;;;6.30;99.90;;;;;;5054212;28;20036;-79
2022/02/23 01:25:34;;;;;;;6.53;1.90;;;6.30;99.90;;;;;;5055669;28;20039;-79
2022/02/23 01:28:02;;;;;;;6.40;1.50;;;6.40;99.90;;;;;;5055598;28;20028;-80
2022/02/23 01:30:29;;;;;;;6.37;1.80;;;6.30;99.90;;;;;;5055571;28;20025;-80
2022/02/23 01:32:55;;;;;;;7.13;1.90;;;6.40;99.90;;;;;;5055473;28;20025;-79
2022/02/23 01:35:21;;;;;;;8.93;1.90;;;6.40;99.90;;;;;;5053875;28;20082;-80
2022/02/23 01:37:47;;;;;;;5.30;1.70;;;6.30;99.90;;;;;;5055374;28;20057;-79
2022/02/23 01:40:13;;;;;;;8.33;1.90;;;6.50;99.90;;;;;;5055193;28;20032;-79
2022/02/23 01:42:39;;;;;;;4.70;1.70;;;6.50;99.90;;;;;;5054945;28;20040;-79
2022/02/23 01:45:05;;;;;;;6.73;1.83;;;6.40;99.90;;;;;;5052976;28;20029;-73
2022/02/23 01:47:31;;;;;;;8.80;2.03;;;6.40;99.90;;;;;;5034844;28;20026;-72
2022/02/23 01:49:56;;;;;;;6.40;2.47;;;6.50;99.90;;;;;;5033013;28;20048;-78
2022/02/23 01:52:25;;;;;;;6.70;1.80;;;6.50;99.90;;;;;;5037571;28;20139;-79
2022/02/23 01:54:52;;;;;;;5.27;1.80;;;6.50;99.90;;;;;;5052601;28;20108;-78
2022/02/23 01:57:17;;;;;;;5.33;1.80;;;6.50;99.90;;;;;;5052365;28;20365;-78
2022/02/23 01:59:43;;;;;;;5.70;1.57;;;6.50;99.90;;;;;;5050691;28;20041;-78
2022/02/23 02:02:09;;;;;;;5.23;1.60;;;6.50;99.90;;;;;;5052380;28;20064;-78
2022/02/23 02:04:34;;;;;;;2.90;1.63;;;6.50;99.90;;;;;;5050800;28;20707;-78
2022/02/23 02:07:00;;;;;;;6.50;1.83;;;6.50;99.90;;;;;;5051106;28;20033;-78
2022/02/23 02:09:25;;;;;;;7.10;1.90;;;6.50;99.90;;;;;;5051748;28;20033;-78
2022/02/23 02:11:51;;;;;;;3.57;1.37;;;6.40;99.90;;;;;;5050876;28;20064;-78
2022/02/23 02:14:16;;;;;;;7.93;1.80;;;6.40;99.90;;;;;;5051283;28;20040;-78
2022/02/23 02:16:42;;;;;;;4.23;1.30;;;6.50;99.90;;;;;;5052091;28;20453;-78
2022/02/23 02:19:08;;;;;;;3.83;1.70;;;6.60;99.90;;;;;;5051869;28;20339;-78
2022/02/23 02:21:53;;;;;;;7.80;1.60;;;6.50;99.90;;;;;;5051954;28;20029;-78
2022/02/23 02:24:30;;;;;;;5.18;1.80;;;6.50;99.90;;;;;;5051315;28;20043;-78
2022/02/23 02:26:57;;;;;;;4.43;1.80;;;6.60;99.90;;;;;;5052081;28;20029;-78
2022/02/23 02:29:24;;;;;;;6.60;1.83;;;6.70;99.90;;;;;;5033476;28;20390;-78
2022/02/23 02:31:51;;;;;;;3.73;1.43;;;6.70;99.90;;;;;;5031982;28;20466;-78
2022/02/23 02:34:16;;;;;;;5.23;1.57;;;6.70;99.90;;;;;;5043317;28;20029;-78
2022/02/23 02:36:42;;;;;;;5.50;1.63;;;6.70;99.90;;;;;;5051603;28;20362;-78
2022/02/23 02:39:08;;;;;;;4.07;1.57;;;6.60;99.90;;;;;;5051517;28;20047;-78
2022/02/23 02:41:35;;;;;;;6.13;1.63;;;6.70;99.90;;;;;;5051357;28;20505;-78
2022/02/23 02:44:01;;;;;;;4.10;1.60;;;6.70;99.90;;;;;;5051004;28;20053;-77
2022/02/23 02:46:27;;;;;;;5.03;1.40;;;6.70;99.90;;;;;;5044968;28;20053;-78
2022/02/23 02:48:53;;;;;;;5.07;1.80;;;6.70;99.90;;;;;;5032777;28;20036;-78
2022/02/23 02:51:19;;;;;;;4.93;1.97;;;6.80;99.90;;;;;;5031120;28;20022;-77
2022/02/23 02:53:45;;;;;;;4.83;1.60;;;6.80;99.90;;;;;;5048867;28;20504;-77
2022/02/23 02:56:10;;;;;;;3.73;1.40;;;6.80;99.90;;;;;;5051565;28;20017;-77
2022/02/23 02:58:36;;;;;;;4.13;1.80;;;6.80;99.90;;;;;;5050790;28;20548;-78
2022/02/23 03:01:02;;;;;;;5.93;1.63;;;6.80;99.90;;;;;;5051214;28;20029;-78
2022/02/23 03:03:28;;;;;;;5.57;1.77;;;6.80;99.90;;;;;;5049589;28;20335;-78
2022/02/23 03:05:53;;;;;;;6.23;1.27;;;6.80;99.90;;;;;;5051267;28;20039;-78
2022/02/23 03:08:19;;;;;;;3.77;1.30;;;6.70;99.90;;;;;;5049550;28;20745;-78
2022/02/23 03:10:44;;;;;;;5.90;1.80;;;6.70;99.90;;;;;;5050033;28;20025;-78
2022/02/23 03:13:10;;;;;;;4.60;1.37;;;6.80;99.90;;;;;;5050388;28;20032;-78
2022/02/23 03:15:37;;;;;;;6.87;1.93;;;6.80;99.90;;;;;;5050973;28;20062;-78
2022/02/23 03:18:03;;;;;;;3.53;1.60;;;6.70;99.90;;;;;;5050815;28;20087;-78
2022/02/23 03:20:29;;;;;;;4.20;1.60;;;6.70;99.90;;;;;;5050870;28;20021;-78
2022/02/23 03:22:55;;;;;;;4.43;1.40;;;6.60;99.90;;;;;;5050378;28;20111;-78
2022/02/23 03:25:20;;;;;;;3.80;1.30;;;6.60;99.90;;;;;;5050672;28;20488;-78
2022/02/23 03:27:46;;;;;;;3.97;1.67;;;6.60;99.90;;;;;;5050414;28;20083;-78
2022/02/23 03:30:13;;;;;;;3.63;1.30;;;6.70;99.90;;;;;;5050324;28;20063;-78
2022/02/23 03:32:38;;;;;;;4.77;1.50;;;6.70;99.90;;;;;;5050529;28;20052;-78
2022/02/23 03:35:05;;;;;;;5.50;1.47;;;6.70;99.90;;;;;;5050571;28;20163;-78
2022/02/23 03:37:30;;;;;;;3.13;1.30;;;6.70;99.90;;;;;;5050456;28;20415;-78
2022/02/23 03:39:57;;;;;;;6.33;1.73;;;6.70;99.90;;;;;;5049909;28;20104;-78
2022/02/23 03:42:23;;;;;;;6.00;1.93;;;6.80;99.90;;;;;;5050450;28;20036;-79
2022/02/23 03:44:48;;;;;;;4.43;1.10;;;6.70;99.90;;;;;;5047009;28;20017;-79
2022/02/23 03:47:14;;;;;;;6.27;1.67;;;6.60;99.90;;;;;;5040732;28;20486;-79
2022/02/23 03:49:40;;;;;;;8.63;2.27;;;6.70;99.90;;;;;;5041360;28;20124;-79
2022/02/23 03:52:06;;;;;;;8.47;1.90;;;6.70;99.90;;;;;;5050239;28;20048;-79
2022/02/23 03:54:31;;;;;;;2.97;1.27;;;6.80;99.90;;;;;;5050341;28;20029;-79
2022/02/23 03:56:57;;;;;;;6.83;1.83;;;6.30;99.90;;;;;;5050239;28;20071;-79
2022/02/23 03:59:23;;;;;;;3.50;1.67;;;6.20;99.90;;;;;;5049724;28;20021;-79
2022/02/23 04:01:48;;;;;;;2.97;1.00;;;6.00;99.90;;;;;;5049884;28;20072;-79
2022/02/23 04:04:18;;;;;;;5.27;1.17;;;5.70;99.90;;;;;;5049470;28;20028;-79
2022/02/23 04:06:45;;;;;;;5.67;1.77;;;5.60;99.90;;;;;;5050246;28;20147;-79
2022/02/23 04:09:11;;;;;;;6.67;1.70;;;5.30;99.90;;;;;;5048370;28;20036;-79
2022/02/23 04:11:37;;;;;;;2.07;1.40;;;5.00;99.90;;;;;;5048858;28;20044;-79
2022/02/23 04:14:04;;;;;;;5.07;1.27;;;5.00;99.90;;;;;;5049675;28;20032;-79
2022/02/23 04:16:29;;;;;;;6.10;1.30;;;5.00;99.90;;;;;;5049982;28;20032;-79
2022/02/23 04:18:55;;;;;;;5.83;1.63;;;4.80;99.90;;;;;;5049398;28;20029;-79
2022/02/23 04:21:21;;;;;;;5.80;1.40;;;4.70;99.90;;;;;;5048781;28;20056;-79
2022/02/23 04:23:46;;;;;;;6.30;1.27;;;4.60;99.90;;;;;;5049606;28;20033;-79
2022/02/23 04:26:13;;;;;;;6.13;1.80;;;4.50;99.90;;;;;;5050052;28;20033;-80
2022/02/23 04:28:39;;;;;;;3.27;1.20;;;4.40;99.90;;;;;;5049497;28;20075;-79
2022/02/23 04:31:05;;;;;;;3.03;1.27;;;4.20;99.90;;;;;;5050042;28;20025;-80
2022/02/23 04:33:31;;;;;;;5.10;1.50;;;4.20;99.90;;;;;;5049688;28;20021;-78
2022/02/23 04:35:57;;;;;;;3.13;1.30;;;4.10;99.90;;;;;;5049816;28;20536;-79
2022/02/23 04:38:23;;;;;;;5.23;1.20;;;4.10;99.90;;;;;;5048112;28;20100;-78
2022/02/23 04:40:49;;;;;;;5.03;1.30;;;4.00;99.90;;;;;;5049625;28;20073;-78
2022/02/23 04:43:15;;;;;;;2.67;1.00;;;4.00;99.90;;;;;;5049718;28;20021;-78
2022/02/23 04:45:40;;;;;;;7.27;1.80;;;4.00;99.90;;;;;;5045370;28;20505;-78
2022/02/23 04:48:06;;;;;;;7.07;1.80;;;4.00;99.90;;;;;;5042202;28;20033;-78
2022/02/23 04:50:33;;;;;;;8.20;1.40;;;4.00;99.90;;;;;;5049882;28;20135;-78
2022/02/23 04:52:59;;;;;;;6.40;1.27;;;3.90;99.90;;;;;;5049558;28;20452;-78
2022/02/23 04:55:24;;;;;;;6.90;1.37;;;3.90;99.90;;;;;;5049780;28;20036;-79
2022/02/23 04:57:50;;;;;;;6.77;1.63;;;3.80;99.90;;;;;;5049610;28;20029;-79
2022/02/23 05:00:16;;;;;;;5.20;1.23;;;3.70;99.90;;;;;;5048123;28;20029;-78
2022/02/23 05:02:41;;;;;;;3.40;1.20;;;3.70;99.90;;;;;;5049785;28;20112;-79
2022/02/23 05:05:08;;;;;;;7.20;1.47;;;3.60;99.90;;;;;;5048239;28;20125;-79
2022/02/23 05:07:34;;;;;;;6.97;1.93;;;3.60;99.90;;;;;;5049358;28;20029;-79
2022/02/23 05:10:00;;;;;;;3.67;1.13;;;3.60;99.90;;;;;;5049276;28;20099;-79
2022/02/23 05:12:26;;;;;;;5.57;1.33;;;3.60;99.90;;;;;;5049585;28;20104;-79
2022/02/23 05:14:52;;;;;;;3.80;1.70;;;3.60;99.90;;;;;;5039825;28;20093;-78
2022/02/23 05:17:18;;;;;;;6.40;1.90;;;3.60;99.90;;;;;;5042009;28;20110;-79
2022/02/23 05:19:45;;;;;;;6.47;1.70;;;3.50;99.90;;;;;;5042882;28;20032;-79
2022/02/23 05:22:12;;;;;;;4.37;1.20;;;3.50;99.90;;;;;;5040917;28;20025;-78
2022/02/23 05:24:37;;;;;;;6.03;1.63;;;3.50;99.90;;;;;;5036531;28;20163;-79
2022/02/23 05:27:04;;;;;;;5.37;1.47;;;3.50;99.90;;;;;;5039217;28;20538;-79
2022/02/23 05:29:31;;;;;;;5.83;1.93;;;3.60;99.90;;;;;;5052720;28;20083;-78
2022/02/23 05:31:57;;;;;;;4.97;1.83;;;3.60;99.90;;;;;;5053916;28;20023;-79
2022/02/23 05:34:23;;;;;;;5.53;1.73;;;3.70;99.90;;;;;;5055165;28;20017;-78
2022/02/23 05:36:49;;;;;;;7.70;1.57;;;3.70;99.90;;;;;;5055600;28;20017;-78
2022/02/23 05:39:15;;;;;;;6.23;1.63;;;3.70;99.90;;;;;;5051081;28;20039;-78
2022/02/23 05:41:41;;;;;;;4.47;1.33;;;3.70;99.90;;;;;;5045495;28;20021;-79
2022/02/23 05:44:07;;;;;;;4.10;1.30;;;3.60;99.90;;;;;;5059927;28;20120;-79
2022/02/23 05:46:33;;;;;;;6.03;1.67;;;3.60;99.90;;;;;;5049536;28;20802;-79
2022/02/23 05:48:58;;;;;;;6.00;1.50;;;3.60;99.90;;;;;;5055095;28;20052;-79
2022/02/23 05:51:29;;;;;;;5.60;1.80;;;3.60;99.90;;;;;;5053882;28;20021;-79
2022/02/23 05:53:56;;;;;;;6.60;1.83;;;3.60;99.90;;;;;;5052351;28;20032;-80
2022/02/23 05:56:21;;;;;;;3.03;1.30;;;3.60;99.90;;;;;;5053153;28;20139;-81
2022/02/23 05:58:47;;;;;;;6.33;1.73;;;3.50;99.90;;;;;;5054639;28;20116;-79
2022/02/23 06:01:13;;;;;;;6.23;2.03;;;3.50;99.90;;;;;;5056168;28;20439;-79
2022/02/23 06:03:38;;;;;;;4.37;1.53;;;3.50;99.90;;;;;;5059800;28;20150;-66
2022/02/23 06:06:04;;;;;;;5.93;1.47;;;3.50;99.90;;;;;;5061292;28;20032;-80
2022/02/23 06:08:30;;;;;;;8.80;1.53;;;3.50;99.90;;;;;;5060363;28;20489;-79
2022/02/23 06:10:55;;;;;;;5.57;1.63;;;3.50;99.90;;;;;;5057780;28;20017;-79
2022/02/23 06:13:21;;;;;;;7.20;1.93;;;3.50;99.90;;;;;;5058399;28;20021;-78
2022/02/23 06:15:47;;;;;;;5.87;1.60;;;3.50;99.90;;;;;;5058385;28;20033;-79
2022/02/23 06:18:13;;;;;;;3.83;1.33;;;3.50;99.90;;;;;;5059485;28;20108;-79
2022/02/23 06:20:39;;;;;;;4.33;1.50;;;3.50;99.90;;;;;;5061316;28;20040;-79
2022/02/23 06:23:04;;;;;;;5.53;1.60;;;3.50;99.90;;;;;;5067059;28;20290;-78
2022/02/23 06:25:30;;;;;;;9.50;2.07;;;3.50;99.90;;;;;;5068635;28;20024;-78
2022/02/23 06:27:56;;;;;;;3.17;1.50;;;3.50;99.90;;;;;;5036924;28;20497;-72
2022/02/23 06:30:22;;;;;;;14.37;2.13;;;3.50;99.90;;;;;;5041494;28;20143;-80
2022/02/23 06:32:47;;;;;;;4.73;1.57;;;3.40;99.90;;;;;;5043848;28;20093;-79
2022/02/23 06:35:13;;;;;;;5.80;1.83;;;3.40;99.90;;;;;;5051048;28;20366;-79
2022/02/23 06:37:39;;;;;;;6.30;1.80;;;3.30;99.90;;;;;;5045468;28;20040;-79
2022/02/23 06:40:05;;;;;;;4.83;1.37;;;3.30;99.90;;;;;;5047433;28;20033;-72
2022/02/23 06:42:31;;;;;;;4.60;1.73;;;3.30;99.90;;;;;;5049641;28;20436;-79
2022/02/23 06:44:58;;;;;;;9.30;1.83;;;3.30;99.90;;;;;;5046119;28;20117;-72
2022/02/23 06:47:24;;;;;;;9.77;2.43;;;3.20;99.90;;;;;;5044066;28;20144;-79
2022/02/23 06:49:50;;;;;;;5.97;2.00;;;3.20;99.90;;;;;;5041292;28;20104;-78
2022/02/23 06:52:18;;;;;;;10.80;2.10;;;3.10;99.90;;;;;;5053437;28;20378;-79
2022/02/23 06:54:44;;;;;;;9.97;1.90;;;3.10;99.90;;;;;;5053070;28;20041;-78
2022/02/23 06:57:10;;;;;;;7.07;2.03;;;3.10;99.90;;;;;;5053341;28;20060;-78
2022/02/23 06:59:39;;;;;;;7.57;1.90;;;3.10;99.90;;;;;;5053009;28;20074;-78
2022/02/23 07:02:05;;;;;;;5.80;1.90;;;3.10;99.90;;;;;;5053360;28;20021;-78
2022/02/23 07:04:31;;;;;;;4.83;1.70;;;3.20;99.90;;;;;;5053195;28;20032;-79
2022/02/23 07:06:58;;;;;;;6.90;1.87;;;3.20;99.90;;;;;;5052980;28;20101;-76
2022/02/23 07:09:24;;;;;;;8.90;2.53;;;3.20;99.90;;;;;;5043507;28;20115;-79
2022/02/23 07:11:49;;;;;;;4.60;1.40;;;3.30;99.90;;;;;;5046084;28;20041;-78
2022/02/23 07:14:15;;;;;;;5.90;1.70;;;3.30;99.90;;;;;;5039446;28;20450;-79
2022/02/23 07:16:41;;;;;;;6.00;1.50;;;3.30;99.90;;;;;;5025328;28;20041;-79
2022/02/23 07:19:06;;;;;;;7.43;1.77;;;3.40;99.90;;;;;;5031915;28;20098;-77
2022/02/23 07:21:34;;;;;;;5.67;1.27;;;3.40;99.90;;;;;;5036751;28;20100;-78
2022/02/23 07:24:00;;;;;;;4.57;1.50;;;3.50;99.90;;;;;;5043612;28;20024;-78
2022/02/23 07:26:26;;;;;;;6.03;1.73;;;3.70;99.90;;;;;;5042233;28;20386;-78
2022/02/23 07:28:52;;;;;;;8.27;2.43;;;3.80;99.90;;;;;;5042907;28;20059;-78
2022/02/23 07:31:18;;;;;;;7.60;1.80;;;3.80;99.90;;;;;;5048228;28;20035;-72
2022/02/23 07:33:45;;;;;;;4.37;1.77;;;3.80;99.90;;;;;;5049453;28;20170;-72
2022/02/23 07:36:11;;;;;;;5.17;2.00;;;3.80;99.90;;;;;;5050251;28;20013;-72
2022/02/23 07:38:38;;;;;;;4.97;1.53;;;3.90;99.90;;;;;;5049647;28;20028;-72
2022/02/23 07:41:07;;;;;;;7.40;1.87;;;4.00;99.90;;;;;;5050588;28;20021;-72
2022/02/23 07:43:34;;;;;;;4.87;1.30;;;4.10;99.90;;;;;;5047658;28;20017;-71
2022/02/23 07:46:05;;;;;;;6.87;2.13;;;4.20;99.90;;;;;;5050294;28;20075;-72
2022/02/23 07:48:32;;;;;;;5.53;1.67;;;4.30;99.90;;;;;;5050044;28;20359;-72
2022/02/23 07:50:58;;;;;;;6.07;1.80;;;4.30;99.90;;;;;;5050251;28;20025;-72
2022/02/23 07:53:27;;;;;;;8.27;1.73;;;4.30;99.90;;;;;;5049141;28;20492;-72
2022/02/23 07:55:52;;;;;;;5.40;1.43;;;4.50;99.90;;;;;;5048623;28;20021;-72
2022/02/23 07:58:18;;;;;;;5.47;1.70;;;4.60;99.90;;;;;;5050298;28;20040;-72
2022/02/23 08:00:44;;;;;;;9.60;1.90;;;4.60;99.90;;;;;;5048684;28;20441;-72
2022/02/23 08:03:11;;;;;;;5.23;1.90;;;4.80;99.90;;;;;;5049813;28;20512;-73
2022/02/23 08:05:36;;;;;;;5.97;1.93;;;4.90;99.90;;;;;;5043824;28;20677;-79
2022/02/23 08:08:02;;;;;;;10.27;2.53;;;4.80;99.90;;;;;;5043282;28;20108;-79
2022/02/23 08:10:28;;;;;;;5.40;1.93;;;4.90;99.90;;;;;;5037751;28;20036;-79
2022/02/23 08:12:58;;;;;;;14.37;2.47;;;5.00;99.90;;;;;;5036737;28;20115;-79
2022/02/23 08:20:54;;;;;;;4.85;1.58;;;5.20;99.90;;;;;;5043074;28;20163;-78
2022/02/23 08:23:20;;;;;;;5.13;1.60;;;5.30;99.90;;;;;;5043839;28;20107;-78
2022/02/23 08:25:47;;;;;;;6.73;1.50;;;5.40;99.90;;;;;;5044249;28;20135;-78
2022/02/23 08:28:13;;;;;;;7.67;2.07;;;5.60;99.90;;;;;;5046623;28;20021;-81
2022/02/23 08:30:39;;;;;;;4.00;1.33;;;5.60;99.90;;;;;;5046349;28;20025;-82
2022/02/23 08:33:05;;;;;;;5.77;1.63;;;5.70;99.90;;;;;;5048034;28;20032;-82
2022/02/23 08:35:31;;;;;;;9.17;3.37;;;5.80;99.90;;;;;;5047690;28;20382;-82
2022/02/23 08:37:57;;;;;;;5.57;1.90;;;6.00;99.90;;;;;;5049765;28;20044;-82
2022/02/23 08:40:23;;;;;;;8.00;1.70;;;6.10;99.90;;;;;;5049220;28;20552;-82
2022/02/23 08:42:48;;;;;;;8.10;1.43;;;6.10;99.90;;;;;;5048645;28;20029;-82
2022/02/23 08:45:14;;;;;;;5.20;1.70;;;6.20;99.90;;;;;;5046063;28;20045;-82
2022/02/23 08:47:39;;;;;;;8.03;1.67;;;6.40;99.90;;;;;;5048070;28;20039;-82
2022/02/23 08:50:07;;;;;;;6.53;1.60;;;6.40;99.90;;;;;;5050379;28;20120;-83
2022/02/23 08:52:32;;;;;;;5.67;1.63;;;6.50;99.90;;;;;;5053459;28;20028;-81
2022/02/23 08:54:58;;;;;;;10.07;2.03;;;6.60;99.90;;;;;;5052297;28;20033;-81
2022/02/23 08:57:23;;;;;;;7.83;2.13;;;6.80;99.90;;;;;;5048687;28;20023;-81
2022/02/23 08:59:49;;;;;;;7.13;1.50;;;7.00;99.90;;;;;;5050993;28;20067;-82
2022/02/23 09:02:15;;;;;;;5.93;1.67;;;7.00;99.90;;;;;;5051627;28;20637;-81
2022/02/23 09:04:40;;;;;;;9.50;1.90;;;7.00;99.90;;;;;;5050355;28;20033;-81
2022/02/23 09:07:06;;;;;;;10.23;2.27;;;7.10;99.90;;;;;;5052081;28;20063;-81
2022/02/23 09:09:31;;;;;;;6.03;1.83;;;7.30;99.90;;;;;;5049991;28;20029;-82
2022/02/23 09:11:57;;;;;;;4.67;1.47;;;7.30;99.90;;;;;;5049991;28;20079;-82
2022/02/23 09:14:23;;;;;;;7.20;1.70;;;7.50;99.90;;;;;;5043324;28;20033;-82
2022/02/23 09:16:49;;;;;;;10.27;2.07;;;7.50;99.90;;;;;;5048473;28;20021;-82
2022/02/23 09:19:15;;;;;;;6.97;2.00;;;7.40;99.90;;;;;;5045401;28;20057;-82
2022/02/23 09:21:42;;;;;;;8.20;2.07;;;7.40;99.90;;;;;;5046369;28;20132;-82
2022/02/23 09:24:08;;;;;;;6.90;1.83;;;7.50;99.90;;;;;;5048706;28;20102;-82
2022/02/23 09:26:34;;;;;;;6.57;1.60;;;7.40;99.90;;;;;;5048018;28;20028;-82
2022/02/23 09:29:00;;;;;;;12.17;2.10;;;7.50;99.90;;;;;;5046012;28;20037;-82
2022/02/23 09:31:26;;;;;;;8.03;2.20;;;7.70;99.90;;;;;;5034513;28;20021;-82
2022/02/23 09:33:53;;;;;;;9.50;2.63;;;7.80;99.90;;;;;;5027145;28;20053;-82
2022/02/23 09:36:20;;;;;;;11.17;2.57;;;7.90;99.90;;;;;;5028867;28;20032;-82
2022/02/23 09:38:46;;;;;;;8.93;2.10;;;8.00;99.90;;;;;;5043647;28;20098;-82
2022/02/23 09:41:16;;;;;;;7.73;2.07;;;8.10;99.90;;;;;;5048862;28;20434;-82
2022/02/23 09:43:43;;;;;;;6.97;2.07;;;8.60;99.90;;;;;;5047611;28;20033;-82
2022/02/23 09:46:09;;;;;;;7.97;1.97;;;8.70;99.90;;;;;;5042327;28;20081;-82
2022/02/23 09:48:35;;;;;;;5.57;1.80;;;8.90;99.90;;;;;;5032610;28;20049;-82
2022/02/23 09:51:01;;;;;;;7.53;2.30;;;9.10;99.90;;;;;;5027285;28;20434;-82
2022/02/23 09:53:27;;;;;;;10.27;2.03;;;9.00;99.90;;;;;;5044611;28;20035;-82
2022/02/23 09:55:59;;;;;;;8.07;2.10;;;8.90;99.90;;;;;;5048757;28;20736;-82
2022/02/23 09:58:28;;;;;;;6.90;1.97;;;9.10;99.90;;;;;;5048592;28;20021;-80
2022/02/23 10:00:56;;;;;;;7.37;1.93;;;9.20;99.90;;;;;;5046561;28;20047;-82
2022/02/23 10:03:24;;;;;;;8.27;1.80;;;9.20;99.90;;;;;;5047758;28;20037;-83
2022/02/23 10:05:50;;;;;;;9.13;2.00;;;9.30;99.90;;;;;;5048374;28;20029;-83
2022/02/23 10:08:16;;;;;;;6.95;1.80;;;10.20;99.90;;;;;;5047051;28;20033;-81
2022/02/23 10:10:45;;;;;;;5.03;1.67;;;10.10;99.90;;;;;;5048803;28;20021;-82
2022/02/23 10:13:11;;;;;;;9.88;2.28;;;10.20;99.90;;;;;;5047636;28;20065;-82
2022/02/23 10:15:42;;;;;;;8.70;2.33;;;10.20;99.90;;;;;;5048239;28;20453;-83
2022/02/23 10:18:15;;;;;;;15.55;2.63;;;10.20;99.90;;;;;;5047760;28;20053;-82
2022/02/23 10:20:41;;;;;;;8.57;2.28;;;10.50;99.90;;;;;;5047550;28;20063;-81
2022/02/23 10:23:20;;;;;;;8.13;2.25;;;10.10;99.90;;;;;;5047371;28;20020;-82
2022/02/23 10:26:05;;;;;;;7.22;1.90;;;10.40;99.90;;;;;;5043323;28;20510;-82
2022/02/23 10:28:33;;;;;;;10.57;2.00;;;10.20;99.90;;;;;;5034076;28;20025;-73
2022/02/23 10:31:04;;;;;;;9.55;2.50;;;9.80;99.90;;;;;;5052447;28;20083;-72
2022/02/23 10:33:36;;;;;;;8.57;1.90;;;9.60;99.90;;;;;;5052154;28;20017;-73
2022/02/23 10:36:08;;;;;;;9.40;2.35;;;9.20;99.90;;;;;;5052139;28;20029;-72
2022/02/23 10:38:35;;;;;;;10.32;2.30;;;9.20;99.90;;;;;;5051852;28;20021;-72
2022/02/23 10:41:04;;;;;;;10.27;2.20;;;9.30;99.90;;;;;;5051869;28;20079;-72
2022/02/23 10:43:31;;;;;;;9.83;2.50;;;9.10;99.90;;;;;;5050871;28;20025;-73
2022/02/23 10:46:00;;;;;;;10.77;2.47;;;9.30;99.90;;;;;;5044655;28;20505;-73
2022/02/23 10:48:34;;;;;;;10.75;2.00;;;9.40;99.90;;;;;;5031103;28;20025;-73
2022/02/23 10:50:59;;;;;;;11.63;2.35;;;9.50;99.90;;;;;;5038620;28;20082;-73
2022/02/23 10:53:27;;;;;;;6.13;1.88;;;9.60;99.90;;;;;;5050762;28;20029;-73
2022/02/23 10:55:53;;;;;;;7.35;2.25;;;9.80;99.90;;;;;;5051056;28;20028;-71
2022/02/23 10:58:19;;;;;;;8.48;1.95;;;10.00;99.90;;;;;;5050993;28;20021;-71
2022/02/23 11:00:49;;;;;;;10.32;2.75;;;10.20;99.90;;;;;;5051664;28;20079;-72
2022/02/23 11:03:18;;;;;;;10.73;2.45;;;10.30;99.90;;;;;;5050918;28;20029;-73
2022/02/23 11:05:48;;;;;;;8.30;2.25;;;10.30;99.90;;;;;;5051194;28;20481;-72
2022/02/23 11:08:14;;;;;;;6.55;2.05;;;10.60;99.90;;;;;;5050278;28;20447;-72
2022/02/23 11:10:46;;;;;;;6.35;1.90;;;10.70;99.90;;;;;;5050339;28;20483;-72
2022/02/23 11:13:14;;;;;;;7.93;2.20;;;10.90;99.90;;;;;;5049861;28;20082;-72
2022/02/23 11:15:43;;;;;;;8.00;2.10;;;11.20;99.90;;;;;;5045873;28;20057;-72
2022/02/23 11:18:10;;;;;;;7.72;1.83;;;11.30;99.90;;;;;;5052410;28;20021;-72
2022/02/23 11:20:38;;;;;;;7.43;1.90;;;11.30;99.90;;;;;;5052438;28;20123;-73
2022/02/23 11:23:04;;;;;;;12.63;2.40;;;11.30;99.90;;;;;;5052356;28;20454;-73
2022/02/23 11:25:39;;;;;;;6.32;1.83;;;11.40;99.90;;;;;;5052143;28;20032;-72
2022/02/23 11:28:12;;;;;;;10.90;2.58;;;11.50;99.90;;;;;;5049234;28;20021;-72
2022/02/23 11:30:39;;;;;;;8.25;2.10;;;11.70;99.90;;;;;;5041210;28;20032;-72
2022/02/23 11:33:05;;;;;;;6.15;1.98;;;12.00;99.90;;;;;;5032014;28;20022;-73
2022/02/23 11:35:58;;;;;;;7.75;2.03;;;12.00;99.90;;;;;;5050348;28;20029;-72
2022/02/23 11:38:28;;;;;;;11.80;2.28;;;11.90;99.90;;;;;;5048827;28;20060;-73
2022/02/23 11:40:56;;;;;;;6.72;1.90;;;11.90;99.90;;;;;;5052151;28;20024;-73
2022/02/23 11:43:23;;;;;;;7.70;1.90;;;12.00;99.90;;;;;;5051618;28;20017;-73
2022/02/23 11:45:56;;;;;;;11.32;2.88;;;12.10;99.90;;;;;;5044401;28;20446;-73
2022/02/23 11:48:22;;;;;;;5.13;1.73;;;12.00;99.90;;;;;;5051503;28;20028;-73
2022/02/23 11:51:02;;;;;;;11.02;1.83;;;11.90;99.90;;;;;;5042173;28;20029;-73
2022/02/23 11:53:40;;;;;;;7.55;1.80;;;11.90;99.90;;;;;;5037639;28;20493;-73
2022/02/23 11:56:10;;;;;;;6.95;1.65;;;12.00;99.90;;;;;;5041277;28;20063;-73
2022/02/23 11:58:44;;;;;;;5.35;1.80;;;12.10;99.90;;;;;;5050494;28;20090;-74
2022/02/23 12:01:09;;;;;;;6.20;2.00;;;12.10;99.90;;;;;;5051374;28;20033;-73
2022/02/23 12:03:35;;;;;;;6.40;1.92;;;12.10;99.90;;;;;;5051216;28;20082;-73
2022/02/23 12:06:04;;;;;;;6.13;1.70;;;12.70;99.90;;;;;;5047794;28;20120;-73
2022/02/23 12:08:36;;;;;;;7.18;2.00;;;12.30;99.90;;;;;;5037139;28;20169;-75
2022/02/23 12:11:17;;;;;;;9.77;2.47;;;11.90;99.90;;;;;;5042279;28;20121;-75
2022/02/23 12:13:51;;;;;;;6.95;2.00;;;12.40;99.90;;;;;;5047955;28;20622;-75
2022/02/23 12:16:41;;;;;;;5.30;1.63;;;12.30;99.90;;;;;;5046151;28;20528;-72
2022/02/23 12:19:11;;;;;;;4.78;1.50;;;12.20;99.90;;;;;;5047208;28;20140;-74
2022/02/23 12:21:47;;;;;;;4.97;1.70;;;12.10;99.90;;;;;;5046589;28;20525;-74
2022/02/23 12:24:24;;;;;;;4.05;1.58;;;12.40;99.90;;;;;;5045264;28;20056;-74
2022/02/23 12:26:54;;;;;;;8.15;1.70;;;12.40;99.90;;;;;;5045314;28;20760;-74
2022/02/23 12:29:25;;;;;;;5.30;1.83;;;12.50;99.90;;;;;;5046582;28;20033;-75
2022/02/23 12:31:54;;;;;;;7.25;1.67;;;14.00;99.90;;;;;;5043391;28;20029;-75
2022/02/23 12:34:23;;;;;;;7.72;2.00;;;13.70;99.90;;;;;;5046698;28;20025;-75
2022/02/23 12:36:56;;;;;;;6.18;2.05;;;13.10;99.90;;;;;;5046779;28;20115;-75
2022/02/23 12:39:23;;;;;;;4.50;1.75;;;12.70;99.90;;;;;;5046660;28;20064;-76
2022/02/23 12:41:56;;;;;;;7.53;2.30;;;13.60;99.90;;;;;;5045645;28;20033;-75
2022/02/23 12:44:23;;;;;;;6.80;2.10;;;13.80;99.90;;;;;;5044883;28;20094;-75
2022/02/23 12:46:52;;;;;;;6.28;1.50;;;13.20;99.90;;;;;;5035726;28;20076;-74
2022/02/23 12:49:20;;;;;;;6.28;1.80;;;14.20;99.90;;;;;;5047107;28;20147;-75
2022/02/23 12:51:46;;;;;;;7.55;1.63;;;13.70;99.90;;;;;;5041626;28;20040;-76
2022/02/23 12:54:14;;;;;;;6.38;1.48;;;13.70;99.90;;;;;;5048092;28;20018;-76
2022/02/23 12:56:48;;;;;;;6.03;2.22;;;13.20;99.90;;;;;;5046958;28;20029;-74
2022/02/23 12:59:21;;;;;;;6.30;2.00;;;13.00;99.90;;;;;;5039712;28;20115;-73